Time;durP1;ratioP1;P1;durP2;ratioP2;P2;SDS_P1;SDS_P2;PMS_P1;PMS_P2;Temp;Humidity;BMP_temperature;BMP_pressure;BME280_temperature;BME280_humidity;BME280_pressure;Samples;Min_cycle;Max_cycle;Signal;HPM_P1;HPM_P2
2022/10/15 00:02:13;;;;;;;;;;;;;;;;;;5113059;28;2412;-50
2022/10/15 00:04:40;;;;;;;;;;;;;;;;;;5113497;28;1710;-52
2022/10/15 00:07:07;;;;;;;;;;;;;;;;;;5112922;28;1290;-51
2022/10/15 00:09:35;;;;;;;;;;;;;;;;;;5113011;28;1938;-47
2022/10/15 00:12:02;;;;;;;;;;;;;;;;;;5113184;28;1704;-49
2022/10/15 00:14:29;;;;;;;;;;;;;;;;;;5113180;28;2013;-49
2022/10/15 00:16:58;;;;;;;;;;;;;;;;;;5113381;28;2022;-48
2022/10/15 00:19:25;;;;;;;;;;;;;;;;;;5113164;28;1692;-50
2022/10/15 00:21:53;;;;;;;;;;;;;;;;;;5112958;28;1952;-50
2022/10/15 00:24:20;;;;;;;;;;;;;;;;;;5113318;28;1787;-49
2022/10/15 00:26:47;;;;;;;;;;;;;;;;;;5112721;28;2084;-49
2022/10/15 00:29:16;;;;;;;;;;;;;;;;;;5112698;28;1995;-48
2022/10/15 00:31:43;;;;;;;;;;;;;;;;;;5112788;28;2006;-53
2022/10/15 00:34:12;;;;;;;;;;;;;;;;;;5098305;28;2025;-47
2022/10/15 00:36:39;;;;;;;;;;;;;;;;;;5092502;28;1447;-50
2022/10/15 00:39:07;;;;;;;;;;;;;;;;;;5092512;28;1846;-48
2022/10/15 00:41:35;;;;;;;;;;;;;;;;;;5090844;28;1817;-49
2022/10/15 00:44:22;;;;;;;;;;;;;;;;;;5092295;28;1956;-50
2022/10/15 00:46:49;;;;;;;;;;;;;;;;;;5090849;28;2020;-53
2022/10/15 00:49:24;;;;;;;;;;;;;;;;;;5091782;28;2162;-48
2022/10/15 00:51:54;;;;;;;;;;;;;;;;;;5091871;28;2012;-46
2022/10/15 00:54:22;;;;;;;;;;;;;;;;;;5090679;28;2040;-52
2022/10/15 00:56:49;;;;;;;;;;;;;;;;;;5092011;28;2057;-54
2022/10/15 00:59:20;;;;;;;;;;;;;;;;;;5090683;28;2202;-50
2022/10/15 01:01:47;;;;;;;;;;;;;;;;;;5091771;28;2046;-49
2022/10/15 01:04:16;;;;;;;;;;;;;;;;;;5091540;28;1912;-52
2022/10/15 01:06:44;;;;;;;;;;;;;;;;;;5092042;28;2123;-52
2022/10/15 01:09:12;;;;;;;;;;;;;;;;;;5091934;28;2020;-53
2022/10/15 01:11:45;;;;;;;;;;;;;;;;;;5090534;28;1913;-47
2022/10/15 01:14:31;;;;;;;;;;;;;;;;;;5091807;28;2037;-49
2022/10/15 01:17:01;;;;;;;;;;;;;;;;;;5091717;28;2018;-51
2022/10/15 01:19:35;;;;;;;;;;;;;;;;;;5091456;28;2117;-51
2022/10/15 01:22:09;;;;;;;;;;;;;;;;;;5090398;28;2411;-48
2022/10/15 01:24:55;;;;;;;;;;;;;;;;;;5091693;28;1440;-48
2022/10/15 01:27:31;;;;;;;;;;;;;;;;;;5090289;28;1439;-48
2022/10/15 01:30:16;;;;;;;;;;;;;;;;;;5090025;28;1972;-50
2022/10/15 01:32:49;;;;;;;;;;;;;;;;;;5091389;28;1464;-50
2022/10/15 01:35:25;;;;;;;;;;;;;;;;;;5091560;28;1768;-52
2022/10/15 01:38:02;;;;;;;;;;;;;;;;;;5091341;28;2082;-47
2022/10/15 01:40:32;;;;;;;;;;;;;;;;;;5091452;28;2130;-52
2022/10/15 01:43:08;;;;;;;;;;;;;;;;;;5090202;28;2213;-48
2022/10/15 01:45:57;;;;;;;;;;;;;;;;;;5083680;28;1877;-47
2022/10/15 01:48:40;;;;;;;;;;;;;;;;;;5107008;28;1906;-52
2022/10/15 01:51:09;;;;;;;;;;;;;;;;;;5090240;28;1829;-49
2022/10/15 01:53:37;;;;;;;;;;;;;;;;;;5106758;28;1948;-50
2022/10/15 01:56:07;;;;;;;;;;;;;;;;;;5089897;28;1936;-50
2022/10/15 01:58:36;;;;;;;;;;;;;;;;;;5091161;28;1762;-52
2022/10/15 02:01:04;;;;;;;;;;;;;;;;;;5091118;28;2062;-46
2022/10/15 02:03:47;;;;;;;;;;;;;;;;;;5110937;28;2136;-50
2022/10/15 02:06:37;;;;;;;;;;;;;;;;;;5095356;28;1569;-43
2022/10/15 02:09:09;;;;;;;;;;;;;;;;;;5092032;28;1913;-48
2022/10/15 02:11:57;;;;;;;;;;;;;;;;;;5093771;28;1684;-50
2022/10/15 02:14:32;;;;;;;;;;;;;;;;;;5093828;28;1725;-53
2022/10/15 02:17:09;;;;;;;;;;;;;;;;;;5093716;28;1581;-51
2022/10/15 02:19:52;;;;;;;;;;;;;;;;;;5095171;28;1863;-54
2022/10/15 02:22:23;;;;;;;;;;;;;;;;;;5093627;28;2014;-50
2022/10/15 02:24:56;;;;;;;;;;;;;;;;;;5094884;28;1479;-53
2022/10/15 02:27:24;;;;;;;;;;;;;;;;;;5094924;28;1963;-49
2022/10/15 02:29:52;;;;;;;;;;;;;;;;;;5093375;28;1991;-52
2022/10/15 02:32:20;;;;;;;;;;;;;;;;;;5093427;28;2034;-48
2022/10/15 02:34:49;;;;;;;;;;;;;;;;;;5094777;28;1930;-54
2022/10/15 02:37:18;;;;;;;;;;;;;;;;;;5094673;28;1861;-45
2022/10/15 02:39:46;;;;;;;;;;;;;;;;;;5094935;28;1747;-43
2022/10/15 02:42:15;;;;;;;;;;;;;;;;;;5093381;28;1675;-46
2022/10/15 02:44:42;;;;;;;;;;;;;;;;;;5094667;28;1879;-50
2022/10/15 02:47:10;;;;;;;;;;;;;;;;;;5093292;28;2027;-52
2022/10/15 02:49:38;;;;;;;;;;;;;;;;;;5093255;28;2112;-53
2022/10/15 02:52:06;;;;;;;;;;;;;;;;;;5093116;28;2131;-53
2022/10/15 02:54:33;;;;;;;;;;;;;;;;;;5094245;28;1701;-48
2022/10/15 02:57:00;;;;;;;;;;;;;;;;;;5093257;28;1735;-51
2022/10/15 02:59:27;;;;;;;;;;;;;;;;;;5092923;28;1996;-51
2022/10/15 03:01:55;;;;;;;;;;;;;;;;;;5092674;28;1993;-53
2022/10/15 03:04:23;;;;;;;;;;;;;;;;;;5092705;28;1408;-52
2022/10/15 03:06:50;;;;;;;;;;;;;;;;;;5094247;28;1838;-49
2022/10/15 03:09:18;;;;;;;;;;;;;;;;;;5092587;28;2050;-46
2022/10/15 03:11:45;;;;;;;;;;;;;;;;;;5109549;28;2010;-49
2022/10/15 03:14:13;;;;;;;;;;;;;;;;;;5094112;28;1770;-49
2022/10/15 03:16:40;;;;;;;;;;;;;;;;;;5092807;28;1811;-53
2022/10/15 03:19:09;;;;;;;;;;;;;;;;;;5092587;28;1664;-49
2022/10/15 03:21:37;;;;;;;;;;;;;;;;;;5092413;28;1749;-49
2022/10/15 03:24:09;;;;;;;;;;;;;;;;;;5092559;28;2390;-48
2022/10/15 03:26:36;;;;;;;;;;;;;;;;;;5105701;28;2033;-50
2022/10/15 03:29:03;;;;;;;;;;;;;;;;;;5114139;28;2054;-45
2022/10/15 03:31:36;;;;;;;;;;;;;;;;;;5112762;28;1854;-52
2022/10/15 03:34:04;;;;;;;;;;;;;;;;;;5109113;28;1985;-50
2022/10/15 03:36:31;;;;;;;;;;;;;;;;;;5092176;28;1465;-52
2022/10/15 03:38:59;;;;;;;;;;;;;;;;;;5092110;28;2130;-51
2022/10/15 03:41:27;;;;;;;;;;;;;;;;;;5091846;28;2079;-50
2022/10/15 03:43:54;;;;;;;;;;;;;;;;;;5093430;28;1782;-51
2022/10/15 03:46:23;;;;;;;;;;;;;;;;;;5093296;28;1625;-49
2022/10/15 03:48:50;;;;;;;;;;;;;;;;;;5108895;28;1910;-42
2022/10/15 03:51:18;;;;;;;;;;;;;;;;;;5092187;28;2112;-50
2022/10/15 03:53:52;;;;;;;;;;;;;;;;;;5092045;28;2489;-53
2022/10/15 03:56:20;;;;;;;;;;;;;;;;;;5091886;28;1939;-53
2022/10/15 03:58:48;;;;;;;;;;;;;;;;;;5093271;28;2077;-52
2022/10/15 04:01:16;;;;;;;;;;;;;;;;;;5091659;28;1502;-52
2022/10/15 04:03:43;;;;;;;;;;;;;;;;;;5093067;28;1706;-51
2022/10/15 04:06:13;;;;;;;;;;;;;;;;;;5093037;28;1835;-52
2022/10/15 04:08:40;;;;;;;;;;;;;;;;;;5092792;28;1975;-54
2022/10/15 04:11:19;;;;;;;;;;;;;;;;;;5091643;28;2149;-48
2022/10/15 04:13:55;;;;;;;;;;;;;;;;;;5091300;28;2012;-53
2022/10/15 04:16:22;;;;;;;;;;;;;;;;;;5092671;28;1656;-46
2022/10/15 04:18:49;;;;;;;;;;;;;;;;;;5091550;28;2103;-51
2022/10/15 04:21:17;;;;;;;;;;;;;;;;;;5091623;28;2039;-48
2022/10/15 04:23:49;;;;;;;;;;;;;;;;;;5091096;28;2032;-52
2022/10/15 04:26:22;;;;;;;;;;;;;;;;;;5091357;28;1977;-44
2022/10/15 04:28:50;;;;;;;;;;;;;;;;;;5092554;28;1977;-50
2022/10/15 04:31:19;;;;;;;;;;;;;;;;;;5091319;28;1702;-53
2022/10/15 04:33:48;;;;;;;;;;;;;;;;;;5091128;28;1907;-50
2022/10/15 04:36:15;;;;;;;;;;;;;;;;;;5091107;28;1624;-51
2022/10/15 04:38:57;;;;;;;;;;;;;;;;;;5090857;28;1622;-50
2022/10/15 04:41:53;;;;;;;;;;;;;;;;;;5082648;28;1531;-41
2022/10/15 04:44:24;;;;;;;;;;;;;;;;;;5091104;28;2889;-50
2022/10/15 04:46:55;;;;;;;;;;;;;;;;;;5090894;28;1872;-47
2022/10/15 04:49:42;;;;;;;;;;;;;;;;;;5091496;28;1918;-49
2022/10/15 04:52:30;;;;;;;;;;;;;;;;;;5090897;28;1617;-48
2022/10/15 04:55:04;;;;;;;;;;;;;;;;;;5090683;28;1864;-48
2022/10/15 04:57:31;;;;;;;;;;;;;;;;;;5090338;28;1667;-52
2022/10/15 04:59:58;;;;;;;;;;;;;;;;;;5090748;28;1893;-50
2022/10/15 05:02:33;;;;;;;;;;;;;;;;;;5092024;28;1849;-53
2022/10/15 05:05:18;;;;;;;;;;;;;;;;;;5091950;28;2334;-51
2022/10/15 05:07:51;;;;;;;;;;;;;;;;;;5090616;28;2279;-51
2022/10/15 05:10:18;;;;;;;;;;;;;;;;;;5090453;28;1994;-52
2022/10/15 05:12:48;;;;;;;;;;;;;;;;;;5090660;28;1653;-52
2022/10/15 05:15:26;;;;;;;;;;;;;;;;;;5090252;28;1719;-51
2022/10/15 05:17:55;;;;;;;;;;;;;;;;;;5090625;28;2064;-51
2022/10/15 05:20:28;;;;;;;;;;;;;;;;;;5090218;28;2049;-52
2022/10/15 05:22:56;;;;;;;;;;;;;;;;;;5090467;28;2328;-42
2022/10/15 05:25:27;;;;;;;;;;;;;;;;;;5090238;28;1918;-53
2022/10/15 05:27:55;;;;;;;;;;;;;;;;;;5092043;28;2283;-53
2022/10/15 05:30:25;;;;;;;;;;;;;;;;;;5091662;28;2041;-48
2022/10/15 05:32:54;;;;;;;;;;;;;;;;;;5090453;28;1868;-53
2022/10/15 05:35:22;;;;;;;;;;;;;;;;;;5090821;28;1755;-50
2022/10/15 05:37:57;;;;;;;;;;;;;;;;;;5089945;28;1873;-42
2022/10/15 05:40:24;;;;;;;;;;;;;;;;;;5091810;28;2005;-53
2022/10/15 05:43:03;;;;;;;;;;;;;;;;;;5091023;28;1728;-49
2022/10/15 05:45:30;;;;;;;;;;;;;;;;;;5091470;28;2248;-50
2022/10/15 05:48:02;;;;;;;;;;;;;;;;;;5089989;28;1636;-51
2022/10/15 05:50:30;;;;;;;;;;;;;;;;;;5091270;28;1913;-52
2022/10/15 05:52:58;;;;;;;;;;;;;;;;;;5073684;28;1619;-48
2022/10/15 05:55:54;;;;;;;;;;;;;;;;;;5075764;28;1855;-52
2022/10/15 05:58:25;;;;;;;;;;;;;;;;;;5091204;28;1844;-51
2022/10/15 06:00:56;;;;;;;;;;;;;;;;;;5091570;28;1402;-50
2022/10/15 06:03:24;;;;;;;;;;;;;;;;;;5091279;28;2098;-52
2022/10/15 06:05:51;;;;;;;;;;;;;;;;;;5091174;28;1976;-51
2022/10/15 06:08:19;;;;;;;;;;;;;;;;;;5091056;28;2036;-50
2022/10/15 06:10:46;;;;;;;;;;;;;;;;;;5091022;28;1922;-50
2022/10/15 06:13:14;;;;;;;;;;;;;;;;;;5091234;28;2114;-53
2022/10/15 06:15:43;;;;;;;;;;;;;;;;;;5090991;28;2115;-52
2022/10/15 06:18:11;;;;;;;;;;;;;;;;;;5090805;28;1918;-51
2022/10/15 06:20:39;;;;;;;;;;;;;;;;;;5091116;28;1906;-53
2022/10/15 06:23:06;;;;;;;;;;;;;;;;;;5089632;28;2499;-48
2022/10/15 06:25:34;;;;;;;;;;;;;;;;;;5090927;28;1836;-51
2022/10/15 06:28:02;;;;;;;;;;;;;;;;;;5089864;28;1985;-50
2022/10/15 06:30:39;;;;;;;;;;;;;;;;;;5091039;28;2013;-51
2022/10/15 06:33:07;;;;;;;;;;;;;;;;;;5090854;28;2022;-50
2022/10/15 06:35:34;;;;;;;;;;;;;;;;;;5090739;28;1616;-51
2022/10/15 06:38:02;;;;;;;;;;;;;;;;;;5090887;28;1985;-51
2022/10/15 06:40:31;;;;;;;;;;;;;;;;;;5091106;28;2318;-50
2022/10/15 06:43:08;;;;;;;;;;;;;;;;;;5090907;28;1645;-51
2022/10/15 06:45:36;;;;;;;;;;;;;;;;;;5090761;28;2164;-53
2022/10/15 06:48:07;;;;;;;;;;;;;;;;;;5093517;28;2125;-51
2022/10/15 06:50:36;;;;;;;;;;;;;;;;;;5094378;28;1953;-51
2022/10/15 06:53:03;;;;;;;;;;;;;;;;;;5093271;28;2344;-50
2022/10/15 06:55:30;;;;;;;;;;;;;;;;;;5094453;28;1926;-54
2022/10/15 06:57:58;;;;;;;;;;;;;;;;;;5094560;28;2295;-49
2022/10/15 07:00:27;;;;;;;;;;;;;;;;;;5094252;28;1707;-45
2022/10/15 07:02:54;;;;;;;;;;;;;;;;;;5094032;28;1605;-47
2022/10/15 07:05:21;;;;;;;;;;;;;;;;;;5094343;28;1838;-46
2022/10/15 07:07:52;;;;;;;;;;;;;;;;;;5094263;28;2014;-50
2022/10/15 07:10:19;;;;;;;;;;;;;;;;;;5094283;28;1911;-51
2022/10/15 07:12:53;;;;;;;;;;;;;;;;;;5093982;28;1985;-49
2022/10/15 07:15:21;;;;;;;;;;;;;;;;;;5094179;28;2095;-50
2022/10/15 07:17:51;;;;;;;;;;;;;;;;;;5094009;28;1698;-49
2022/10/15 07:20:19;;;;;;;;;;;;;;;;;;5093778;28;1837;-50
2022/10/15 07:22:50;;;;;;;;;;;;;;;;;;5093860;28;1676;-54
2022/10/15 07:25:18;;;;;;;;;;;;;;;;;;5093545;28;1948;-50
2022/10/15 07:27:45;;;;;;;;;;;;;;;;;;5093718;28;2076;-52
2022/10/15 07:30:12;;;;;;;;;;;;;;;;;;5093596;28;1977;-50
2022/10/15 07:32:39;;;;;;;;;;;;;;;;;;5093702;28;1979;-49
2022/10/15 07:35:08;;;;;;;;;;;;;;;;;;5093740;28;2610;-51
2022/10/15 07:37:35;;;;;;;;;;;;;;;;;;5093243;28;1809;-52
2022/10/15 07:40:03;;;;;;;;;;;;;;;;;;5093794;28;1717;-50
2022/10/15 07:42:32;;;;;;;;;;;;;;;;;;5093394;28;1891;-49
2022/10/15 07:45:01;;;;;;;;;;;;;;;;;;5093823;28;2031;-51
2022/10/15 07:47:29;;;;;;;;;;;;;;;;;;5093418;28;1350;-53
2022/10/15 07:49:56;;;;;;;;;;;;;;;;;;5093254;28;2159;-51
2022/10/15 07:52:23;;;;;;;;;;;;;;;;;;5093608;28;1398;-53
2022/10/15 07:54:51;;;;;;;;;;;;;;;;;;5093124;28;2015;-51
2022/10/15 07:57:21;;;;;;;;;;;;;;;;;;5093323;28;1568;-48
2022/10/15 07:59:49;;;;;;;;;;;;;;;;;;5107487;28;1572;-49
2022/10/15 08:02:17;;;;;;;;;;;;;;;;;;5092997;28;2140;-48
2022/10/15 08:04:44;;;;;;;;;;;;;;;;;;5092881;28;1760;-49
2022/10/15 08:07:11;;;;;;;;;;;;;;;;;;5092755;28;1968;-52
2022/10/15 08:09:38;;;;;;;;;;;;;;;;;;5092949;28;2042;-51
2022/10/15 08:12:06;;;;;;;;;;;;;;;;;;5093246;28;1706;-43
2022/10/15 08:14:33;;;;;;;;;;;;;;;;;;5093183;28;2380;-52
2022/10/15 08:17:04;;;;;;;;;;;;;;;;;;5093084;28;1824;-50
2022/10/15 08:19:31;;;;;;;;;;;;;;;;;;5092888;28;2054;-50
2022/10/15 08:21:59;;;;;;;;;;;;;;;;;;5092790;28;1995;-48
2022/10/15 08:24:26;;;;;;;;;;;;;;;;;;5092730;28;1927;-49
2022/10/15 08:26:53;;;;;;;;;;;;;;;;;;5092340;28;2007;-50
2022/10/15 08:29:20;;;;;;;;;;;;;;;;;;5092643;28;1581;-50
2022/10/15 08:31:48;;;;;;;;;;;;;;;;;;5092464;28;1935;-45
2022/10/15 08:34:17;;;;;;;;;;;;;;;;;;5092444;28;2024;-51
2022/10/15 08:36:44;;;;;;;;;;;;;;;;;;5092512;28;2005;-53
2022/10/15 08:39:11;;;;;;;;;;;;;;;;;;5092558;28;2143;-52
2022/10/15 08:41:48;;;;;;;;;;;;;;;;;;5092441;28;1899;-50
2022/10/15 08:44:22;;;;;;;;;;;;;;;;;;5092368;28;1601;-56
2022/10/15 08:46:53;;;;;;;;;;;;;;;;;;5092059;28;1646;-46
2022/10/15 08:49:44;;;;;;;;;;;;;;;;;;5092232;28;2018;-47
2022/10/15 08:52:17;;;;;;;;;;;;;;;;;;5088968;28;1666;-51
2022/10/15 08:54:44;;;;;;;;;;;;;;;;;;5092049;28;1791;-50
2022/10/15 08:57:34;;;;;;;;;;;;;;;;;;5091977;28;1906;-49
2022/10/15 09:00:03;;;;;;;;;;;;;;;;;;5089012;28;2068;-52
2022/10/15 09:02:37;;;;;;;;;;;;;;;;;;5091901;28;2122;-52
2022/10/15 09:05:18;;;;;;;;;;;;;;;;;;5092207;28;2046;-49
2022/10/15 09:07:48;;;;;;;;;;;;;;;;;;5091664;28;1480;-51
2022/10/15 09:10:36;;;;;;;;;;;;;;;;;;5091529;28;1906;-49
2022/10/15 09:13:08;;;;;;;;;;;;;;;;;;5091730;28;2125;-48
2022/10/15 09:15:47;;;;;;;;;;;;;;;;;;5091841;28;1990;-49
2022/10/15 09:18:17;;;;;;;;;;;;;;;;;;5091659;28;1930;-49
2022/10/15 09:20:45;;;;;;;;;;;;;;;;;;5091755;28;2184;-50
2022/10/15 09:23:19;;;;;;;;;;;;;;;;;;5091650;28;2257;-51
2022/10/15 09:25:53;;;;;;;;;;;;;;;;;;5090180;28;1670;-52
2022/10/15 09:28:23;;;;;;;;;;;;;;;;;;5091546;28;1946;-48
2022/10/15 09:30:53;;;;;;;;;;;;;;;;;;5090192;28;2035;-51
2022/10/15 09:33:20;;;;;;;;;;;;;;;;;;5098606;28;2153;-48
2022/10/15 09:35:53;;;;;;;;;;;;;;;;;;5111928;28;1585;-53
2022/10/15 09:38:23;;;;;;;;;;;;;;;;;;5111799;28;1952;-51
2022/10/15 09:41:01;;;;;;;;;;;;;;;;;;5111925;28;1813;-50
2022/10/15 09:43:33;;;;;;;;;;;;;;;;;;5111751;28;1701;-51
2022/10/15 09:46:02;;;;;;;;;;;;;;;;;;5112161;28;1457;-51
2022/10/15 09:48:35;;;;;;;;;;;;;;;;;;5111521;28;1775;-49
2022/10/15 09:51:11;;;;;;;;;;;;;;;;;;5111747;28;1932;-50
2022/10/15 09:53:44;;;;;;;;;;;;;;;;;;5111813;28;1678;-47
2022/10/15 09:56:13;;;;;;;;;;;;;;;;;;5111809;28;1361;-51
2022/10/15 09:58:48;;;;;;;;;;;;;;;;;;5111779;28;1996;-50
2022/10/15 10:01:20;;;;;;;;;;;;;;;;;;5111368;28;1737;-50
2022/10/15 10:04:07;;;;;;;;;;;;;;;;;;5111672;28;1817;-49
2022/10/15 10:06:43;;;;;;;;;;;;;;;;;;5111439;28;1925;-51
2022/10/15 10:09:21;;;;;;;;;;;;;;;;;;5111848;28;1708;-49
2022/10/15 10:11:53;;;;;;;;;;;;;;;;;;5111976;28;1964;-50
2022/10/15 10:14:28;;;;;;;;;;;;;;;;;;5111398;28;2139;-53
2022/10/15 10:17:06;;;;;;;;;;;;;;;;;;5111468;28;1975;-52
2022/10/15 10:19:33;;;;;;;;;;;;;;;;;;5111267;28;1855;-52
2022/10/15 10:22:12;;;;;;;;;;;;;;;;;;5112614;28;1882;-48
2022/10/15 10:24:40;;;;;;;;;;;;;;;;;;5115401;28;1746;-55
2022/10/15 10:27:20;;;;;;;;;;;;;;;;;;5115440;28;2067;-49
2022/10/15 10:30:06;;;;;;;;;;;;;;;;;;5115329;28;1497;-52
2022/10/15 10:32:34;;;;;;;;;;;;;;;;;;5114430;28;2097;-50
2022/10/15 10:35:02;;;;;;;;;;;;;;;;;;5094710;28;1480;-53
2022/10/15 10:37:40;;;;;;;;;;;;;;;;;;5094666;28;1860;-49
2022/10/15 10:40:20;;;;;;;;;;;;;;;;;;5094645;28;1896;-49
2022/10/15 10:42:47;;;;;;;;;;;;;;;;;;5094589;28;1809;-51
2022/10/15 10:45:18;;;;;;;;;;;;;;;;;;5094435;28;1737;-50
2022/10/15 10:47:46;;;;;;;;;;;;;;;;;;5094604;28;1586;-42
2022/10/15 10:50:33;;;;;;;;;;;;;;;;;;5094937;28;1817;-49
2022/10/15 10:53:24;;;;;;;;;;;;;;;;;;5094621;28;1829;-53
2022/10/15 10:55:53;;;;;;;;;;;;;;;;;;5089009;28;1752;-51
2022/10/15 10:58:26;;;;;;;;;;;;;;;;;;5094321;28;2299;-49
2022/10/15 11:00:54;;;;;;;;;;;;;;;;;;5094424;28;2031;-47
2022/10/15 11:03:24;;;;;;;;;;;;;;;;;;5094243;28;2140;-57
2022/10/15 11:06:19;;;;;;;;;;;;;;;;;;5094246;28;1762;-50
2022/10/15 11:08:54;;;;;;;;;;;;;;;;;;5073400;28;1877;-48
2022/10/15 11:11:44;;;;;;;;;;;;;;;;;;5092908;28;1979;-50
2022/10/15 11:14:30;;;;;;;;;;;;;;;;;;5073269;28;1998;-54
2022/10/15 11:17:06;;;;;;;;;;;;;;;;;;5092394;28;1971;-52
2022/10/15 11:19:39;;;;;;;;;;;;;;;;;;5092406;28;1756;-51
2022/10/15 11:22:26;;;;;;;;;;;;;;;;;;5092037;28;1971;-48
2022/10/15 11:24:58;;;;;;;;;;;;;;;;;;5091940;28;1793;-51
2022/10/15 11:27:38;;;;;;;;;;;;;;;;;;5091785;28;2112;-53
2022/10/15 11:30:24;;;;;;;;;;;;;;;;;;5091730;28;1264;-49
2022/10/15 11:32:51;;;;;;;;;;;;;;;;;;5094486;28;1778;-52
2022/10/15 11:35:35;;;;;;;;;;;;;;;;;;5113360;28;2000;-51
2022/10/15 11:38:18;;;;;;;;;;;;;;;;;;5114370;28;1850;-54
2022/10/15 11:40:57;;;;;;;;;;;;;;;;;;5114052;28;1837;-49
2022/10/15 11:43:31;;;;;;;;;;;;;;;;;;5113954;28;1464;-49
2022/10/15 11:46:07;;;;;;;;;;;;;;;;;;5114096;28;2546;-54
2022/10/15 11:48:37;;;;;;;;;;;;;;;;;;5113968;28;2147;-52
2022/10/15 11:51:27;;;;;;;;;;;;;;;;;;5113874;28;1974;-52
2022/10/15 11:53:54;;;;;;;;;;;;;;;;;;5113666;28;1742;-51
2022/10/15 11:56:29;;;;;;;;;;;;;;;;;;5113660;28;1690;-51
2022/10/15 11:59:13;;;;;;;;;;;;;;;;;;5113707;28;2001;-51
2022/10/15 12:01:53;;;;;;;;;;;;;;;;;;5113431;28;1602;-50
2022/10/15 12:04:29;;;;;;;;;;;;;;;;;;5113827;28;1832;-51
2022/10/15 12:07:00;;;;;;;;;;;;;;;;;;5113159;27;1719;-50
2022/10/15 12:09:30;;;;;;;;;;;;;;;;;;5113502;27;2029;-53
2022/10/15 12:12:24;;;;;;;;;;;;;;;;;;5113692;28;1979;-54
2022/10/15 12:14:58;;;;;;;;;;;;;;;;;;5104936;28;2189;-43
2022/10/15 12:17:32;;;;;;;;;;;;;;;;;;5113132;28;1714;-49
2022/10/15 12:20:18;;;;;;;;;;;;;;;;;;5113121;28;1980;-50
2022/10/15 12:22:45;;;;;;;;;;;;;;;;;;5113243;28;1634;-48
2022/10/15 12:25:31;;;;;;;;;;;;;;;;;;5113156;28;1750;-49
2022/10/15 12:28:14;;;;;;;;;;;;;;;;;;5113121;28;1786;-50
2022/10/15 12:30:42;;;;;;;;;;;;;;;;;;5113015;28;1947;-51
2022/10/15 12:33:27;;;;;;;;;;;;;;;;;;5107220;28;1943;-54
2022/10/15 12:35:56;;;;;;;;;;;;;;;;;;5092522;28;1966;-54
2022/10/15 12:38:28;;;;;;;;;;;;;;;;;;5092358;28;1829;-54
2022/10/15 12:40:57;;;;;;;;;;;;;;;;;;5092213;28;1959;-50
2022/10/15 12:43:25;;;;;;;;;;;;;;;;;;5092607;28;2031;-53
2022/10/15 12:45:59;;;;;;;;;;;;;;;;;;5091979;28;1403;-53
2022/10/15 12:48:31;;;;;;;;;;;;;;;;;;5092057;28;2207;-51
2022/10/15 12:51:17;;;;;;;;;;;;;;;;;;5092084;28;1975;-51
2022/10/15 12:53:45;;;;;;;;;;;;;;;;;;5092234;28;2142;-50
2022/10/15 12:56:15;;;;;;;;;;;;;;;;;;5092145;28;1916;-51
2022/10/15 12:58:46;;;;;;;;;;;;;;;;;;5092218;28;1902;-50
2022/10/15 13:01:13;;;;;;;;;;;;;;;;;;5091788;28;2188;-51
2022/10/15 13:03:40;;;;;;;;;;;;;;;;;;5092062;28;1848;-50
2022/10/15 13:06:19;;;;;;;;;;;;;;;;;;5092108;28;1732;-51
2022/10/15 13:08:47;;;;;;;;;;;;;;;;;;5092054;28;1858;-53
2022/10/15 13:11:19;;;;;;;;;;;;;;;;;;5091957;28;1964;-52
2022/10/15 13:13:48;;;;;;;;;;;;;;;;;;5091705;28;2163;-53
2022/10/15 13:16:17;;;;;;;;;;;;;;;;;;5091819;28;1835;-48
2022/10/15 13:18:48;;;;;;;;;;;;;;;;;;5091774;28;1950;-51
2022/10/15 13:21:15;;;;;;;;;;;;;;;;;;5091797;28;1739;-52
2022/10/15 13:23:49;;;;;;;;;;;;;;;;;;5091697;28;1845;-54
2022/10/15 13:26:25;;;;;;;;;;;;;;;;;;5091673;28;2449;-47
2022/10/15 13:28:55;;;;;;;;;;;;;;;;;;5091925;28;1651;-49
2022/10/15 13:31:24;;;;;;;;;;;;;;;;;;5091645;28;2328;-49
2022/10/15 13:33:57;;;;;;;;;;;;;;;;;;5091849;28;2250;-50
2022/10/15 13:36:26;;;;;;;;;;;;;;;;;;5090455;28;2185;-50
2022/10/15 13:38:56;;;;;;;;;;;;;;;;;;5091909;28;1777;-51
2022/10/15 13:41:24;;;;;;;;;;;;;;;;;;5091737;28;2015;-52
2022/10/15 13:43:53;;;;;;;;;;;;;;;;;;5091581;28;1998;-53
2022/10/15 13:46:22;;;;;;;;;;;;;;;;;;5091222;28;1864;-53
2022/10/15 13:48:55;;;;;;;;;;;;;;;;;;5091178;28;1367;-46
2022/10/15 13:51:22;;;;;;;;;;;;;;;;;;5091593;28;1973;-45
2022/10/15 13:53:49;;;;;;;;;;;;;;;;;;5091318;28;1938;-50
2022/10/15 13:56:23;;;;;;;;;;;;;;;;;;5091566;28;1583;-52
2022/10/15 13:58:51;;;;;;;;;;;;;;;;;;5095598;28;2116;-51
2022/10/15 14:01:20;;;;;;;;;;;;;;;;;;5095380;28;1716;-52
2022/10/15 14:03:49;;;;;;;;;;;;;;;;;;5095252;28;1786;-50
2022/10/15 14:06:20;;;;;;;;;;;;;;;;;;5095474;28;1997;-50
2022/10/15 14:08:48;;;;;;;;;;;;;;;;;;5095058;28;1838;-51
2022/10/15 14:11:17;;;;;;;;;;;;;;;;;;5094884;28;1946;-49
2022/10/15 14:13:45;;;;;;;;;;;;;;;;;;5095337;28;1516;-54
2022/10/15 14:16:13;;;;;;;;;;;;;;;;;;5094941;28;1654;-50
2022/10/15 14:18:42;;;;;;;;;;;;;;;;;;5095181;28;1695;-48
2022/10/15 14:21:20;;;;;;;;;;;;;;;;;;5095174;28;2063;-55
2022/10/15 14:23:48;;;;;;;;;;;;;;;;;;5095053;28;2297;-54
2022/10/15 14:26:22;;;;;;;;;;;;;;;;;;5095212;28;1534;-54
2022/10/15 14:28:50;;;;;;;;;;;;;;;;;;5094877;28;1887;-50
2022/10/15 14:31:35;;;;;;;;;;;;;;;;;;5094958;28;2117;-50
2022/10/15 14:34:24;;;;;;;;;;;;;;;;;;5094789;28;1838;-54
2022/10/15 14:36:52;;;;;;;;;;;;;;;;;;5094504;28;1944;-46
2022/10/15 14:39:28;;;;;;;;;;;;;;;;;;5094719;28;1693;-52
2022/10/15 14:42:06;;;;;;;;;;;;;;;;;;5094870;28;2055;-54
2022/10/15 14:44:46;;;;;;;;;;;;;;;;;;5094804;28;1959;-54
2022/10/15 14:47:21;;;;;;;;;;;;;;;;;;5094583;28;2000;-54
2022/10/15 14:49:54;;;;;;;;;;;;;;;;;;5094603;28;2134;-53
2022/10/15 14:52:21;;;;;;;;;;;;;;;;;;5094540;28;1982;-54
2022/10/15 14:55:03;;;;;;;;;;;;;;;;;;5094818;28;1835;-51
2022/10/15 14:57:37;;;;;;;;;;;;;;;;;;5093422;28;1907;-42
2022/10/15 15:00:09;;;;;;;;;;;;;;;;;;5094238;28;2275;-54
2022/10/15 15:02:37;;;;;;;;;;;;;;;;;;5094217;28;2061;-51
2022/10/15 15:05:10;;;;;;;;;;;;;;;;;;5094337;28;2213;-50
2022/10/15 15:07:37;;;;;;;;;;;;;;;;;;5093901;28;1763;-52
2022/10/15 15:10:06;;;;;;;;;;;;;;;;;;5094078;28;1558;-49
2022/10/15 15:12:34;;;;;;;;;;;;;;;;;;5094106;28;2181;-41
2022/10/15 15:15:01;;;;;;;;;;;;;;;;;;5094452;28;1993;-54
2022/10/15 15:17:29;;;;;;;;;;;;;;;;;;5094258;28;2301;-46
2022/10/15 15:19:56;;;;;;;;;;;;;;;;;;5094147;28;2085;-53
2022/10/15 15:22:28;;;;;;;;;;;;;;;;;;5093896;28;1743;-52
2022/10/15 15:25:05;;;;;;;;;;;;;;;;;;5093725;28;1946;-53
2022/10/15 15:27:36;;;;;;;;;;;;;;;;;;5094209;28;1887;-54
2022/10/15 15:30:07;;;;;;;;;;;;;;;;;;5093836;28;1851;-48
2022/10/15 15:32:34;;;;;;;;;;;;;;;;;;5093606;28;1977;-49
2022/10/15 15:35:01;;;;;;;;;;;;;;;;;;5093832;28;2033;-53
2022/10/15 15:37:29;;;;;;;;;;;;;;;;;;5094104;28;1685;-53
2022/10/15 15:39:57;;;;;;;;;;;;;;;;;;5092836;28;1756;-54
2022/10/15 15:42:24;;;;;;;;;;;;;;;;;;5093407;28;1836;-51
2022/10/15 15:44:51;;;;;;;;;;;;;;;;;;5093500;28;1837;-54
2022/10/15 15:47:19;;;;;;;;;;;;;;;;;;5092370;28;2251;-54
2022/10/15 15:49:45;;;;;;;;;;;;;;;;;;5093361;28;1860;-51
2022/10/15 15:52:15;;;;;;;;;;;;;;;;;;5093428;28;1980;-48
2022/10/15 15:54:42;;;;;;;;;;;;;;;;;;5093572;28;2106;-53
2022/10/15 15:57:09;;;;;;;;;;;;;;;;;;5093481;28;1756;-52
2022/10/15 15:59:36;;;;;;;;;;;;;;;;;;5093114;28;1819;-52
2022/10/15 16:02:04;;;;;;;;;;;;;;;;;;5093418;28;2188;-50
2022/10/15 16:04:31;;;;;;;;;;;;;;;;;;5093288;28;2132;-51
2022/10/15 16:06:58;;;;;;;;;;;;;;;;;;5093506;28;2237;-54
2022/10/15 16:09:25;;;;;;;;;;;;;;;;;;5093026;28;1749;-54
2022/10/15 16:11:52;;;;;;;;;;;;;;;;;;5092997;28;2260;-52
2022/10/15 16:14:19;;;;;;;;;;;;;;;;;;5093074;28;2052;-53
2022/10/15 16:16:46;;;;;;;;;;;;;;;;;;5093063;28;1881;-51
2022/10/15 16:19:13;;;;;;;;;;;;;;;;;;5092098;28;1985;-48
2022/10/15 16:21:40;;;;;;;;;;;;;;;;;;5092761;28;2316;-51
2022/10/15 16:24:08;;;;;;;;;;;;;;;;;;5093035;28;1950;-53
2022/10/15 16:26:37;;;;;;;;;;;;;;;;;;5093080;28;2261;-52
2022/10/15 16:29:04;;;;;;;;;;;;;;;;;;5092844;28;1758;-47
2022/10/15 16:31:35;;;;;;;;;;;;;;;;;;5092432;28;1748;-53
2022/10/15 16:34:03;;;;;;;;;;;;;;;;;;5093329;28;2012;-51
2022/10/15 16:36:30;;;;;;;;;;;;;;;;;;5113095;28;1884;-51
2022/10/15 16:38:57;;;;;;;;;;;;;;;;;;5113001;28;1398;-55
2022/10/15 16:41:25;;;;;;;;;;;;;;;;;;5111469;28;2078;-47
2022/10/15 16:43:52;;;;;;;;;;;;;;;;;;5112741;27;2012;-54
2022/10/15 16:46:19;;;;;;;;;;;;;;;;;;5112759;28;2009;-51
2022/10/15 16:48:52;;;;;;;;;;;;;;;;;;5112559;28;2153;-52
2022/10/15 16:51:20;;;;;;;;;;;;;;;;;;5111400;28;2055;-49
2022/10/15 16:53:47;;;;;;;;;;;;;;;;;;5112497;27;1984;-52
2022/10/15 16:56:19;;;;;;;;;;;;;;;;;;5112764;28;1707;-50
2022/10/15 16:58:46;;;;;;;;;;;;;;;;;;5112493;28;1511;-50
2022/10/15 17:01:18;;;;;;;;;;;;;;;;;;5112396;27;1627;-46
2022/10/15 17:03:46;;;;;;;;;;;;;;;;;;5112505;28;1592;-53
2022/10/15 17:06:17;;;;;;;;;;;;;;;;;;5112423;28;2114;-54
2022/10/15 17:08:49;;;;;;;;;;;;;;;;;;5112300;28;2073;-50
2022/10/15 17:11:27;;;;;;;;;;;;;;;;;;5112333;28;2252;-51
2022/10/15 17:13:56;;;;;;;;;;;;;;;;;;5112097;28;1985;-52
2022/10/15 17:16:24;;;;;;;;;;;;;;;;;;5112232;28;1979;-53
2022/10/15 17:18:52;;;;;;;;;;;;;;;;;;5112139;28;1573;-53
2022/10/15 17:21:20;;;;;;;;;;;;;;;;;;5112321;28;1952;-49
2022/10/15 17:23:50;;;;;;;;;;;;;;;;;;5112060;28;2269;-53
2022/10/15 17:26:18;;;;;;;;;;;;;;;;;;5112122;28;1227;-50
2022/10/15 17:28:48;;;;;;;;;;;;;;;;;;5111753;28;1799;-52
2022/10/15 17:31:18;;;;;;;;;;;;;;;;;;5111930;28;1606;-53
2022/10/15 17:33:46;;;;;;;;;;;;;;;;;;5100892;28;1982;-52